Terminal Aerodrome Forecast
Issued by NWS

Home | Current Version | Previous Version | Text Only | Print | Product List | Glossary On
Versions: 1 2 3 4 5 6 7 8 9 10 11 12 13
000
FTUS46 KSGX 220520
TAFONT
TAF
KONT 220520Z 2206/2312 25007KT P6SM BKN025
     FM220800 VRB05KT P6SM VCSH BKN020
     FM221900 25011G18KT P6SM FEW025 SCT045
     FM230400 24010KT P6SM BKN035
     FM230800 VRB05KT P6SM BKN030=

USA.gov is the U.S. government's official web portal to all federal, state and local government web resources and services.